createdAt,value
2019-05-13T00:00:06.702Z,8.78
2019-05-13T00:04:27.044Z,8.71
2019-05-13T00:08:47.885Z,8.48
2019-05-13T00:13:09.187Z,8.63
2019-05-13T00:17:29.960Z,8.62
2019-05-13T00:21:51.208Z,8.59
2019-05-13T00:26:13.969Z,8.62
2019-05-13T00:30:34.536Z,8.57
2019-05-13T00:34:55.434Z,8.48
2019-05-13T00:39:15.870Z,8.53
2019-05-13T00:43:36.430Z,8.45
2019-05-13T00:47:57.217Z,8.38
2019-05-13T00:52:17.601Z,8.51
2019-05-13T00:56:37.879Z,8.36
2019-05-13T01:00:58.490Z,8.34
2019-05-13T01:05:19.284Z,8.24
2019-05-13T01:09:40.049Z,8.11
2019-05-13T01:14:00.672Z,7.99
2019-05-13T01:18:23.289Z,8.05
2019-05-13T01:22:44.270Z,7.94
2019-05-13T01:27:04.633Z,7.89
2019-05-13T01:31:25.431Z,7.87
2019-05-13T01:35:45.854Z,7.80
2019-05-13T01:40:06.885Z,7.77
2019-05-13T01:44:27.684Z,7.81
2019-05-13T01:48:48.921Z,7.79
2019-05-13T01:53:09.373Z,7.59
2019-05-13T01:57:29.897Z,7.62
2019-05-13T02:01:51.124Z,7.57
2019-05-13T02:06:14.042Z,7.53
2019-05-13T02:10:34.362Z,7.35
2019-05-13T02:14:55.040Z,7.37
2019-05-13T02:19:16.064Z,7.27
2019-05-13T02:23:37.154Z,7.22
2019-05-13T02:27:58.473Z,7.15
2019-05-13T02:32:23.269Z,7.09
2019-05-13T02:36:43.915Z,7.08
2019-05-13T02:41:04.624Z,7.09
2019-05-13T02:45:25.371Z,7.10
2019-05-13T02:49:45.688Z,6.99
2019-05-13T02:54:06.229Z,6.82
2019-05-13T02:58:26.961Z,7.06
2019-05-13T03:02:48.314Z,6.67
2019-05-13T03:07:11.808Z,6.47
2019-05-13T03:11:33.165Z,6.43
2019-05-13T03:15:54.088Z,6.25
2019-05-13T03:20:16.838Z,6.07
2019-05-13T03:24:37.337Z,6.07
2019-05-13T03:28:58.912Z,5.98
2019-05-13T03:33:27.419Z,5.89
2019-05-13T03:37:42.717Z,5.82
2019-05-13T03:42:03.136Z,5.65
2019-05-13T03:46:25.387Z,5.71
2019-05-13T03:50:46.074Z,5.65
2019-05-13T03:55:06.965Z,5.52
2019-05-13T03:59:27.530Z,5.41
2019-05-13T04:03:47.955Z,5.66
2019-05-13T04:08:08.678Z,5.50
2019-05-13T04:12:28.961Z,5.58
2019-05-13T04:16:53.218Z,5.40
2019-05-13T04:21:13.659Z,5.62
2019-05-13T04:25:39.482Z,5.53
2019-05-13T04:29:57.359Z,5.73
2019-05-13T04:34:17.713Z,5.65
2019-05-13T04:38:38.459Z,5.78
2019-05-13T04:43:02.928Z,6.00
2019-05-13T04:47:23.963Z,6.23
2019-05-13T04:51:44.928Z,6.24
2019-05-13T04:56:05.716Z,6.46
2019-05-13T05:01:02.703Z,6.55
2019-05-13T05:05:52.914Z,6.74
2019-05-13T05:10:44.782Z,6.84
2019-05-13T05:15:52.279Z,6.93
2019-05-13T05:20:32.066Z,7.46
2019-05-13T05:25:05.209Z,7.54
2019-05-13T05:29:54.390Z,7.46
2019-05-13T05:34:38.717Z,7.60
2019-05-13T05:39:08.515Z,7.91
2019-05-13T05:43:31.497Z,7.73
2019-05-13T05:47:54.197Z,8.06
2019-05-13T05:52:18.335Z,7.97
2019-05-13T05:56:41.478Z,8.36
2019-05-13T06:01:02.756Z,8.49
2019-05-13T06:05:24.713Z,8.52
2019-05-13T06:09:44.872Z,9.01
2019-05-13T06:14:05.561Z,8.88
2019-05-13T06:18:26.221Z,9.26
2019-05-13T06:22:47.209Z,9.24
2019-05-13T06:27:07.488Z,9.36
2019-05-13T06:31:28.424Z,9.30
2019-05-13T06:35:51.941Z,9.44
2019-05-13T06:40:12.475Z,9.52
2019-05-13T06:44:33.273Z,9.58
2019-05-13T06:48:55.554Z,9.69
2019-05-13T06:53:16.176Z,9.83
2019-05-13T06:57:36.450Z,9.98
2019-05-13T07:01:56.837Z,10.04
2019-05-13T07:06:17.698Z,10.15
2019-05-13T07:10:38.314Z,10.24
2019-05-13T07:14:59.069Z,10.36
2019-05-13T07:19:19.840Z,10.59
2019-05-13T07:23:42.283Z,10.63
2019-05-13T07:28:03.074Z,10.75
2019-05-13T07:32:23.907Z,11.01
2019-05-13T07:36:44.283Z,11.45
2019-05-13T07:41:05.045Z,11.45
2019-05-13T07:45:25.752Z,11.53
2019-05-13T07:49:46.442Z,11.42
2019-05-13T07:54:07.194Z,11.69
2019-05-13T07:58:28.170Z,11.69
2019-05-13T08:02:48.786Z,11.81
2019-05-13T08:07:11.590Z,12.21
2019-05-13T08:11:35.344Z,12.21
2019-05-13T08:15:55.084Z,12.20
2019-05-13T08:20:16.560Z,12.20
2019-05-13T08:24:37.302Z,12.18
2019-05-13T08:29:01.985Z,12.49
2019-05-13T08:33:22.651Z,12.57
2019-05-13T08:37:43.516Z,12.44
2019-05-13T08:42:15.082Z,12.69
2019-05-13T08:46:27.205Z,12.82
2019-05-13T08:50:48.334Z,12.67
2019-05-13T08:55:15.265Z,13.09
2019-05-13T08:59:32.535Z,13.43
2019-05-13T09:03:53.142Z,13.36
2019-05-13T09:08:14.603Z,13.78
2019-05-13T09:12:40.032Z,14.09
2019-05-13T09:17:01.642Z,14.05
2019-05-13T09:21:22.462Z,14.11
2019-05-13T09:25:43.219Z,13.93
2019-05-13T09:30:05.128Z,14.18
2019-05-13T09:34:25.904Z,13.85
2019-05-13T09:38:46.584Z,13.74
2019-05-13T09:43:07.363Z,14.49
2019-05-13T09:47:28.557Z,14.70
2019-05-13T09:51:52.257Z,14.74
2019-05-13T09:56:12.568Z,14.83
2019-05-13T10:00:33.350Z,14.94
2019-05-13T10:04:54.012Z,14.98
2019-05-13T10:09:14.872Z,14.60
2019-05-13T10:13:35.261Z,14.49
2019-05-13T10:17:55.748Z,14.82
2019-05-13T10:22:16.912Z,14.53
2019-05-13T10:26:38.334Z,14.93
2019-05-13T10:30:58.976Z,15.23
2019-05-13T10:35:19.876Z,14.94
2019-05-13T10:39:40.652Z,15.53
2019-05-13T10:44:02.960Z,15.59
2019-05-13T10:48:24.188Z,15.70
2019-05-13T10:52:45.924Z,15.90
2019-05-13T10:57:06.912Z,15.84
2019-05-13T11:01:28.159Z,15.98
2019-05-13T11:05:48.575Z,15.89
2019-05-13T11:10:12.764Z,16.01
2019-05-13T11:14:32.622Z,15.46
2019-05-13T11:18:53.559Z,15.49
2019-05-13T11:23:14.015Z,16.03
2019-05-13T11:27:34.659Z,16.25
2019-05-13T11:31:55.597Z,16.01
2019-05-13T11:36:19.127Z,16.17
2019-05-13T11:40:39.209Z,16.54
2019-05-13T11:44:59.660Z,16.15
2019-05-13T11:49:20.308Z,16.30
2019-05-13T11:53:41.653Z,16.00
2019-05-13T11:58:03.040Z,16.20
2019-05-13T12:02:23.571Z,16.49
2019-05-13T12:06:48.843Z,16.81
2019-05-13T12:11:06.264Z,16.37
2019-05-13T12:15:42.480Z,16.09
2019-05-13T12:19:54.309Z,16.16
2019-05-13T12:24:14.163Z,16.50
2019-05-13T12:28:35.421Z,16.81
2019-05-13T12:32:56.237Z,17.14
2019-05-13T12:37:17.457Z,17.30
2019-05-13T12:41:38.558Z,17.26
2019-05-13T12:46:02.067Z,16.60
2019-05-13T12:50:23.514Z,17.09
2019-05-13T12:54:44.642Z,17.29
2019-05-13T12:59:05.314Z,17.21
2019-05-13T13:03:26.923Z,16.92
2019-05-13T13:08:13.530Z,16.88
2019-05-13T13:12:11.987Z,16.62
2019-05-13T13:16:35.423Z,16.63
2019-05-13T13:21:00.373Z,17.01
2019-05-13T13:25:17.703Z,17.32
2019-05-13T13:29:38.697Z,17.33
2019-05-13T13:34:11.973Z,17.62
2019-05-13T13:38:26.271Z,17.70
2019-05-13T13:42:46.938Z,17.43
2019-05-13T13:47:08.411Z,17.38
2019-05-13T13:51:34.005Z,16.97
2019-05-13T13:55:55.992Z,16.39
2019-05-13T14:00:33.044Z,17.28
2019-05-13T14:04:38.193Z,17.88
2019-05-13T14:09:00.905Z,17.48
2019-05-13T14:13:21.974Z,16.48
2019-05-13T14:17:44.124Z,17.07
2019-05-13T14:22:05.827Z,17.82
2019-05-13T14:26:26.886Z,17.80
2019-05-13T14:30:47.566Z,18.02
2019-05-13T14:35:08.986Z,18.39
2019-05-13T14:43:59.573Z,17.92
2019-05-13T14:48:22.311Z,17.97
2019-05-13T14:52:43.296Z,17.77
2019-05-13T14:57:04.361Z,17.97
2019-05-13T15:01:25.394Z,17.65
2019-05-13T15:05:46.089Z,17.98
2019-05-13T15:10:07.298Z,18.60
2019-05-13T15:14:28.121Z,17.88
2019-05-13T15:18:49.198Z,17.83
2019-05-13T15:23:11.904Z,17.82
2019-05-13T15:27:33.137Z,18.18
2019-05-13T15:31:54.301Z,18.15
2019-05-13T15:36:15.237Z,18.05
2019-05-13T15:40:36.429Z,18.41
2019-05-13T15:44:57.435Z,18.19
2019-05-13T15:49:18.063Z,18.51
2019-05-13T15:53:39.468Z,18.01
2019-05-13T15:58:02.443Z,18.05
2019-05-13T16:02:23.503Z,18.43
2019-05-13T16:06:56.897Z,18.53
2019-05-13T16:11:18.181Z,18.04
2019-05-13T16:15:38.276Z,18.10
2019-05-13T16:20:01.949Z,18.33
2019-05-13T16:24:46.420Z,17.97
2019-05-13T16:29:08.195Z,18.12
2019-05-13T16:33:31.369Z,18.05
2019-05-13T16:37:51.868Z,17.97
2019-05-13T16:42:12.145Z,18.10
2019-05-13T16:46:33.535Z,18.02
2019-05-13T16:50:54.426Z,19.16
2019-05-13T16:55:15.456Z,19.55
2019-05-13T16:59:36.107Z,19.79
2019-05-13T17:03:57.876Z,19.51
2019-05-13T17:08:19.152Z,20.03
2019-05-13T17:12:39.712Z,20.91
2019-05-13T17:17:01.201Z,21.45
2019-05-13T17:21:22.749Z,20.53
2019-05-13T17:25:44.676Z,20.97
2019-05-13T17:30:05.047Z,20.88
2019-05-13T17:34:26.032Z,21.44
2019-05-13T17:38:47.538Z,21.85
2019-05-13T17:43:07.529Z,22.81
2019-05-13T17:47:28.252Z,21.82
2019-05-13T17:51:48.974Z,20.48
2019-05-13T17:56:11.090Z,18.86
2019-05-13T18:00:32.256Z,18.37
2019-05-13T18:04:53.586Z,17.62
2019-05-13T18:09:14.489Z,17.45
2019-05-13T18:13:34.999Z,16.74
2019-05-13T18:17:55.957Z,16.34
2019-05-13T18:22:16.484Z,16.39
2019-05-13T18:26:37.318Z,16.01
2019-05-13T18:30:57.710Z,15.83
2019-05-13T18:35:18.278Z,15.76
2019-05-13T18:39:41.433Z,15.44
2019-05-13T18:44:01.569Z,15.27
2019-05-13T18:48:22.809Z,15.22
2019-05-13T18:52:46.826Z,15.21
2019-05-13T18:57:08.113Z,15.19
2019-05-13T19:01:28.605Z,14.92
2019-05-13T19:05:50.737Z,14.80
2019-05-13T19:10:11.608Z,14.69
2019-05-13T19:14:32.533Z,14.93
2019-05-13T19:18:53.146Z,14.68
2019-05-13T19:23:13.887Z,14.42
2019-05-13T19:27:34.796Z,14.42
2019-05-13T19:31:55.100Z,14.37
2019-05-13T19:36:16.599Z,14.37
2019-05-13T19:40:37.440Z,14.32
2019-05-13T19:44:58.658Z,14.37
2019-05-13T19:49:29.675Z,14.17
2019-05-13T19:53:44.532Z,14.07
2019-05-13T19:58:04.856Z,14.15
2019-05-13T20:02:25.618Z,13.95
2019-05-13T20:06:46.356Z,13.67
2019-05-13T20:11:06.950Z,13.71
2019-05-13T20:15:28.154Z,13.41
2019-05-13T20:19:51.412Z,13.58
2019-05-13T20:24:11.940Z,13.37
2019-05-13T20:28:32.464Z,13.22
2019-05-13T20:32:53.715Z,13.26
2019-05-13T20:37:14.944Z,13.03
2019-05-13T20:41:36.683Z,12.90
2019-05-13T20:45:57.557Z,12.91
2019-05-13T20:50:21.476Z,12.72
2019-05-13T20:54:41.695Z,12.72
2019-05-13T20:59:03.057Z,12.70
2019-05-13T21:03:25.200Z,12.85
2019-05-13T21:07:45.936Z,12.70
2019-05-13T21:12:06.658Z,12.79
2019-05-13T21:16:27.077Z,12.42
2019-05-13T21:20:47.680Z,12.53
2019-05-13T21:25:08.581Z,12.27
2019-05-13T21:29:29.490Z,12.27
2019-05-13T21:33:51.361Z,11.98
2019-05-13T21:38:12.488Z,11.87
2019-05-13T21:42:34.115Z,11.73
2019-05-13T21:46:54.789Z,11.61
2019-05-13T21:51:15.939Z,11.80
2019-05-13T21:55:36.955Z,11.80
2019-05-13T21:59:57.714Z,11.89
2019-05-13T22:04:18.564Z,11.63
2019-05-13T22:08:41.128Z,11.85
2019-05-13T22:13:02.447Z,11.84
2019-05-13T22:17:23.621Z,11.61
2019-05-13T22:21:44.367Z,11.48
2019-05-13T22:26:05.200Z,11.48
2019-05-13T22:32:21.964Z,11.49
2019-05-13T22:36:42.781Z,11.12
2019-05-13T22:41:03.455Z,11.12
2019-05-13T22:45:24.256Z,11.13
2019-05-13T22:49:44.784Z,11.06
2019-05-13T22:54:05.668Z,11.15
2019-05-13T22:58:26.636Z,11.03
2019-05-13T23:02:47.358Z,10.88
2019-05-13T23:07:07.510Z,10.88
2019-05-13T23:11:28.006Z,10.85
2019-05-13T23:15:48.572Z,10.71
2019-05-13T23:20:09.740Z,10.71
2019-05-13T23:24:31.201Z,10.61
2019-05-13T23:28:52.272Z,10.35
2019-05-13T23:33:12.382Z,10.53
2019-05-13T23:37:32.879Z,10.45
2019-05-13T23:41:53.445Z,10.37
2019-05-13T23:46:13.968Z,10.27
2019-05-13T23:50:34.549Z,10.22
2019-05-13T23:54:55.363Z,10.06
2019-05-13T23:59:16.337Z,10.00
